createdAt,value
2022-11-22T00:01:25.642Z,3.70
2022-11-22T00:03:54.425Z,3.95
2022-11-22T00:06:22.909Z,4.03
2022-11-22T00:08:51.325Z,3.65
2022-11-22T00:11:21.183Z,3.40
2022-11-22T00:13:49.762Z,3.58
2022-11-22T00:16:18.092Z,3.15
2022-11-22T00:18:46.899Z,3.28
2022-11-22T00:21:15.508Z,3.40
2022-11-22T00:23:44.371Z,4.55
2022-11-22T00:26:13.017Z,3.70
2022-11-22T00:28:43.027Z,3.80
2022-11-22T00:31:11.612Z,4.80
2022-11-22T00:33:40.252Z,4.10
2022-11-22T00:36:08.911Z,4.75
2022-11-22T00:38:37.391Z,4.50
2022-11-22T00:41:06.039Z,4.38
2022-11-22T00:43:34.559Z,5.18
2022-11-22T00:46:04.788Z,5.25
2022-11-22T00:48:33.318Z,5.75
2022-11-22T00:51:01.890Z,6.75
2022-11-22T00:53:30.387Z,6.38
2022-11-22T00:55:58.940Z,6.50
2022-11-22T00:58:27.437Z,5.80
2022-11-22T01:00:56.996Z,6.13
2022-11-22T01:03:27.147Z,6.30
2022-11-22T01:05:55.734Z,6.13
2022-11-22T01:08:24.781Z,6.80
2022-11-22T01:10:57.821Z,6.32
2022-11-22T01:13:27.181Z,6.18
2022-11-22T01:15:56.038Z,5.80
2022-11-22T01:18:24.499Z,6.30
2022-11-22T01:20:54.439Z,6.07
2022-11-22T01:23:23.415Z,6.28
2022-11-22T01:25:51.851Z,5.68
2022-11-22T01:28:21.335Z,6.25
2022-11-22T01:30:52.849Z,6.55
2022-11-22T01:33:22.561Z,6.13
2022-11-22T01:35:51.007Z,5.00
2022-11-22T01:38:20.879Z,5.60
2022-11-22T01:40:49.478Z,5.72
2022-11-22T01:43:20.627Z,5.50
2022-11-22T01:45:52.918Z,5.95
2022-11-22T01:48:50.928Z,6.00
2022-11-22T01:51:26.144Z,5.82
2022-11-22T01:53:59.426Z,6.72
2022-11-22T01:56:29.780Z,7.03
2022-11-22T01:59:01.630Z,6.88
2022-11-22T02:01:31.635Z,6.13
2022-11-22T02:04:04.543Z,6.50
2022-11-22T02:06:41.035Z,7.43
2022-11-22T02:09:13.343Z,7.35
2022-11-22T02:11:48.019Z,8.05
2022-11-22T02:14:20.385Z,8.15
2022-11-22T02:16:50.305Z,7.90
2022-11-22T02:19:25.114Z,7.88
2022-11-22T02:22:01.076Z,7.78
2022-11-22T02:24:41.323Z,7.78
2022-11-22T02:27:11.399Z,7.38
2022-11-22T02:29:41.429Z,7.97
2022-11-22T02:32:09.908Z,7.57
2022-11-22T02:34:46.219Z,8.07
2022-11-22T02:37:19.292Z,8.05
2022-11-22T02:39:51.610Z,7.30
2022-11-22T02:42:21.918Z,7.05
2022-11-22T02:44:50.631Z,6.68
2022-11-22T02:47:19.369Z,6.95
2022-11-22T02:49:47.829Z,6.50
2022-11-22T02:52:18.621Z,6.55
2022-11-22T02:54:46.932Z,6.40
2022-11-22T02:57:15.401Z,5.88
2022-11-22T02:59:45.469Z,6.55
2022-11-22T03:02:14.201Z,5.07
2022-11-22T03:04:42.689Z,5.50
2022-11-22T03:07:11.353Z,5.68
2022-11-22T03:09:39.938Z,5.40
2022-11-22T03:12:08.761Z,4.88
2022-11-22T03:14:37.370Z,5.25
2022-11-22T03:17:07.157Z,4.80
2022-11-22T03:19:35.608Z,4.65
2022-11-22T03:22:03.970Z,4.82
2022-11-22T03:24:32.620Z,4.95
2022-11-22T03:27:01.117Z,4.97
2022-11-22T03:29:29.968Z,4.95
2022-11-22T03:31:58.680Z,4.80
2022-11-22T03:34:28.732Z,5.00
2022-11-22T03:36:57.196Z,5.50
2022-11-22T03:39:25.818Z,5.13
2022-11-22T03:41:56.392Z,5.13
2022-11-22T03:44:24.976Z,4.90
2022-11-22T03:46:53.530Z,5.55
2022-11-22T03:49:22.251Z,5.47
2022-11-22T03:51:52.767Z,5.00
2022-11-22T03:54:21.230Z,5.25
2022-11-22T03:56:49.770Z,5.18
2022-11-22T03:59:18.282Z,5.45
2022-11-22T04:01:46.912Z,4.95
2022-11-22T04:04:15.600Z,5.78
2022-11-22T04:06:44.459Z,5.10
2022-11-22T04:09:14.392Z,4.90
2022-11-22T04:11:43.011Z,4.60
2022-11-22T04:14:31.779Z,4.40
2022-11-22T04:17:00.360Z,4.97
2022-11-22T04:19:29.130Z,4.85
2022-11-22T04:21:56.661Z,4.68
2022-11-22T04:24:44.085Z,4.65
2022-11-22T04:27:12.658Z,4.72
2022-11-22T04:29:41.362Z,5.18
2022-11-22T04:32:27.955Z,4.30
2022-11-22T04:34:56.376Z,4.82
2022-11-22T04:37:24.917Z,4.80
2022-11-22T04:39:54.886Z,4.75
2022-11-22T04:42:40.714Z,4.40
2022-11-22T04:45:11.101Z,5.22
2022-11-22T04:47:56.992Z,4.72
2022-11-22T04:50:57.504Z,4.40
2022-11-22T04:53:27.153Z,4.55
2022-11-22T04:55:57.370Z,4.88
2022-11-22T04:58:25.871Z,4.50
2022-11-22T05:00:54.593Z,4.88
2022-11-22T05:03:23.280Z,4.28
2022-11-22T05:05:51.662Z,3.90
2022-11-22T05:08:20.252Z,4.10
2022-11-22T05:10:58.734Z,4.32
2022-11-22T05:13:31.890Z,4.38
2022-11-22T05:16:01.630Z,4.60
2022-11-22T05:18:31.070Z,4.28
2022-11-22T05:21:00.985Z,3.90
2022-11-22T05:23:49.721Z,4.82
2022-11-22T05:26:18.342Z,4.65
2022-11-22T05:28:48.249Z,5.70
2022-11-22T05:31:18.610Z,5.80
2022-11-22T05:33:47.930Z,5.13
2022-11-22T05:36:16.542Z,5.18
2022-11-22T05:38:45.116Z,5.45
2022-11-22T05:41:15.492Z,4.47
2022-11-22T05:43:44.611Z,4.30
2022-11-22T05:46:21.005Z,4.63
2022-11-22T05:48:52.339Z,4.45
2022-11-22T05:51:26.032Z,5.18
2022-11-22T05:53:56.515Z,5.00
2022-11-22T05:56:26.371Z,6.00
2022-11-22T05:58:55.048Z,5.20
2022-11-22T06:01:26.016Z,6.20
2022-11-22T06:03:55.775Z,5.93
2022-11-22T06:06:24.264Z,6.03
2022-11-22T06:08:55.605Z,6.43
2022-11-22T06:11:26.160Z,6.43
2022-11-22T06:13:56.979Z,6.78
2022-11-22T06:16:28.387Z,6.32
2022-11-22T06:18:57.503Z,5.60
2022-11-22T06:21:29.000Z,7.25
2022-11-22T06:23:57.693Z,5.88
2022-11-22T06:26:26.603Z,6.22
2022-11-22T06:28:56.657Z,6.90
2022-11-22T06:31:28.622Z,6.57
2022-11-22T06:33:59.843Z,8.30
2022-11-22T06:36:30.240Z,8.00
2022-11-22T06:38:59.069Z,7.57
2022-11-22T06:41:29.418Z,7.43
2022-11-22T06:43:58.054Z,6.90
2022-11-22T06:46:28.987Z,7.75
2022-11-22T06:48:57.603Z,7.55
2022-11-22T06:51:28.748Z,8.68
2022-11-22T06:53:58.234Z,7.90
2022-11-22T06:56:30.020Z,7.90
2022-11-22T06:58:59.117Z,8.00
2022-11-22T07:01:31.117Z,7.88
2022-11-22T07:04:00.675Z,7.93
2022-11-22T07:06:30.720Z,8.68
2022-11-22T07:09:00.162Z,8.10
2022-11-22T07:11:30.847Z,7.00
2022-11-22T07:14:07.140Z,6.80
2022-11-22T07:16:39.223Z,7.90
2022-11-22T07:19:08.693Z,6.53
2022-11-22T07:21:38.440Z,6.43
2022-11-22T07:24:08.590Z,5.68
2022-11-22T07:26:37.857Z,6.80
2022-11-22T07:29:06.572Z,6.13
2022-11-22T07:31:35.127Z,6.50
2022-11-22T07:34:05.448Z,6.15
2022-11-22T07:36:37.802Z,6.55
2022-11-22T07:39:06.406Z,7.35
2022-11-22T07:41:35.100Z,6.70
2022-11-22T07:44:04.056Z,6.28
2022-11-22T07:46:33.958Z,6.80
2022-11-22T07:49:05.729Z,7.15
2022-11-22T07:51:35.057Z,6.90
2022-11-22T07:54:03.731Z,7.03
2022-11-22T07:56:34.629Z,6.57
2022-11-22T07:59:03.841Z,6.75
2022-11-22T08:01:34.032Z,6.55
2022-11-22T08:04:02.723Z,6.68
2022-11-22T08:06:33.218Z,6.70
2022-11-22T08:09:02.586Z,6.18
2022-11-22T08:11:31.095Z,6.72
2022-11-22T08:14:01.562Z,6.32
2022-11-22T08:16:32.868Z,6.97
2022-11-22T08:19:03.044Z,12.98
2022-11-22T08:21:33.207Z,19.23
2022-11-22T08:24:08.047Z,8.57
2022-11-22T08:26:37.870Z,9.35
2022-11-22T08:29:13.746Z,9.05
2022-11-22T08:31:43.280Z,9.68
2022-11-22T08:34:11.841Z,9.88
2022-11-22T08:36:41.855Z,9.80
2022-11-22T08:39:10.425Z,12.27
2022-11-22T08:41:39.256Z,9.73
2022-11-22T08:44:07.953Z,10.23
2022-11-22T08:46:36.447Z,10.40
2022-11-22T08:49:06.820Z,10.05
2022-11-22T08:51:37.424Z,10.82
2022-11-22T08:54:08.351Z,11.93
2022-11-22T08:56:36.828Z,12.15
2022-11-22T08:59:05.532Z,10.50
2022-11-22T09:01:34.544Z,11.55
2022-11-22T09:04:03.289Z,10.82
2022-11-22T09:09:37.401Z,11.02
2022-11-22T09:12:07.068Z,10.68
2022-11-22T09:14:35.621Z,11.15
2022-11-22T09:17:06.176Z,12.60
2022-11-22T09:19:34.779Z,13.00
2022-11-22T09:22:03.992Z,14.13
2022-11-22T09:24:34.128Z,14.70
2022-11-22T09:27:02.881Z,15.02
2022-11-22T09:29:31.895Z,15.35
2022-11-22T09:32:00.937Z,15.18
2022-11-22T09:34:29.345Z,14.13
2022-11-22T09:36:58.208Z,15.35
2022-11-22T09:39:27.161Z,15.02
2022-11-22T09:42:25.706Z,16.48
2022-11-22T09:45:16.909Z,15.63
2022-11-22T09:47:56.115Z,16.70
2022-11-22T09:50:33.050Z,18.05
2022-11-22T09:53:06.926Z,19.25
2022-11-22T09:55:42.620Z,17.42
2022-11-22T09:58:18.780Z,16.17
2022-11-22T10:00:52.278Z,15.80
2022-11-22T10:03:30.553Z,14.85
2022-11-22T10:06:03.179Z,15.63
2022-11-22T10:08:40.716Z,14.82
2022-11-22T10:11:17.468Z,16.00
2022-11-22T10:13:54.567Z,14.73
2022-11-22T10:16:32.794Z,13.93
2022-11-22T10:19:11.923Z,16.00
2022-11-22T10:21:40.726Z,15.05
2022-11-22T10:24:15.913Z,14.52
2022-11-22T10:26:45.143Z,14.27
2022-11-22T10:29:30.382Z,14.93
2022-11-22T10:32:09.479Z,14.30
2022-11-22T10:34:52.923Z,14.73
2022-11-22T10:37:32.267Z,14.38
2022-11-22T10:40:09.843Z,15.23
2022-11-22T10:43:05.650Z,14.50
2022-11-22T10:45:39.490Z,15.60
2022-11-22T10:48:21.003Z,14.60
2022-11-22T10:51:03.971Z,15.05
2022-11-22T10:53:47.277Z,15.15
2022-11-22T10:56:24.543Z,14.82
2022-11-22T10:59:29.157Z,14.90
2022-11-22T11:02:05.415Z,15.18
2022-11-22T11:04:39.482Z,14.15
2022-11-22T11:07:13.748Z,14.25
2022-11-22T11:12:43.760Z,16.50
2022-11-22T11:15:21.222Z,16.55
2022-11-22T11:17:56.914Z,16.85
2022-11-22T11:20:28.923Z,17.50
2022-11-22T11:25:47.231Z,18.05
2022-11-22T11:28:21.703Z,18.77
2022-11-22T11:30:54.589Z,18.73
2022-11-22T11:33:27.936Z,18.60
2022-11-22T11:36:08.000Z,18.27
2022-11-22T11:38:39.751Z,17.77
2022-11-22T11:41:21.812Z,16.95
2022-11-22T11:43:51.059Z,16.88
2022-11-22T11:46:22.394Z,15.82
2022-11-22T11:48:52.916Z,15.60
2022-11-22T11:51:39.666Z,16.27
2022-11-22T11:54:13.337Z,15.80
2022-11-22T11:56:48.181Z,17.23
2022-11-22T11:59:19.827Z,16.63
2022-11-22T12:01:55.200Z,16.55
2022-11-22T12:04:28.018Z,15.07
2022-11-22T12:07:04.711Z,14.95
2022-11-22T12:09:37.148Z,13.85
2022-11-22T12:12:33.422Z,14.63
2022-11-22T12:15:12.724Z,15.95
2022-11-22T12:17:50.530Z,14.70
2022-11-22T12:20:24.928Z,15.95
2022-11-22T12:23:07.454Z,14.75
2022-11-22T12:25:39.413Z,16.17
2022-11-22T12:28:20.025Z,14.32
2022-11-22T12:30:53.979Z,15.95
2022-11-22T12:33:29.412Z,16.05
2022-11-22T12:35:59.111Z,16.13
2022-11-22T12:38:34.342Z,15.63
2022-11-22T12:41:07.709Z,15.85
2022-11-22T12:43:42.866Z,15.32
2022-11-22T12:46:16.288Z,15.55
2022-11-22T12:48:51.618Z,16.45
2022-11-22T12:51:28.262Z,14.93
2022-11-22T12:54:03.709Z,14.93
2022-11-22T12:56:41.038Z,15.57
2022-11-22T12:59:21.422Z,15.43
2022-11-22T13:01:53.715Z,14.40
2022-11-22T13:04:30.520Z,13.05
2022-11-22T13:07:09.104Z,12.55
2022-11-22T13:09:47.261Z,11.55
2022-11-22T13:12:18.163Z,11.75
2022-11-22T13:14:50.351Z,11.88
2022-11-22T13:17:20.838Z,11.80
2022-11-22T13:19:55.072Z,10.75
2022-11-22T13:22:33.559Z,11.85
2022-11-22T13:25:22.495Z,11.55
2022-11-22T13:27:53.804Z,11.30
2022-11-22T13:30:25.980Z,10.20
2022-11-22T13:32:56.892Z,10.30
2022-11-22T13:35:32.570Z,12.57
2022-11-22T13:38:07.667Z,13.02
2022-11-22T13:40:47.162Z,13.10
2022-11-22T13:43:52.916Z,12.75
2022-11-22T13:47:02.229Z,14.43
2022-11-22T13:49:46.825Z,14.52
2022-11-22T13:52:35.410Z,17.35
2022-11-22T13:55:30.422Z,16.17
2022-11-22T13:58:40.084Z,16.80
2022-11-22T14:01:46.655Z,16.00
2022-11-22T14:04:37.907Z,17.13
2022-11-22T14:07:21.669Z,17.40
2022-11-22T14:09:57.241Z,17.50
2022-11-22T14:12:55.720Z,17.35
2022-11-22T14:15:36.223Z,17.65
2022-11-22T14:18:22.786Z,16.42
2022-11-22T14:21:04.005Z,17.10
2022-11-22T14:23:42.409Z,17.67
2022-11-22T14:26:22.212Z,17.90
2022-11-22T14:29:17.752Z,18.92
2022-11-22T14:31:56.745Z,19.98
2022-11-22T14:34:29.445Z,19.98
2022-11-22T14:37:32.037Z,19.83
2022-11-22T14:40:14.983Z,18.95
2022-11-22T14:43:00.357Z,19.25
2022-11-22T14:45:39.385Z,18.58
2022-11-22T14:48:18.451Z,19.02
2022-11-22T14:50:53.491Z,19.38
2022-11-22T14:53:30.047Z,18.58
2022-11-22T14:56:06.007Z,17.95
2022-11-22T14:58:39.921Z,19.23
2022-11-22T15:01:49.689Z,17.42
2022-11-22T15:09:13.453Z,17.23
2022-11-22T15:09:22.946Z,17.10
2022-11-22T15:11:38.499Z,16.50
2022-11-22T15:14:45.474Z,16.25
2022-11-22T15:57:53.177Z,14.50
2022-11-22T16:00:25.855Z,14.15
2022-11-22T16:02:57.232Z,15.95
2022-11-22T16:06:09.246Z,20.92
2022-11-22T16:08:22.346Z,15.73
2022-11-22T16:10:52.789Z,16.10
2022-11-22T16:13:34.172Z,20.20
2022-11-22T16:16:09.187Z,15.93
2022-11-22T16:18:37.700Z,14.15
2022-11-22T16:21:20.459Z,13.77
2022-11-22T16:23:49.066Z,10.18
2022-11-22T16:26:25.297Z,10.60
2022-11-22T16:28:57.286Z,9.85
2022-11-22T16:31:27.666Z,9.73
2022-11-22T16:33:58.127Z,10.40
2022-11-22T16:36:31.700Z,10.10
2022-11-22T16:39:00.632Z,9.60
2022-11-22T16:41:30.879Z,9.68
2022-11-22T16:44:03.690Z,10.38
2022-11-22T16:46:32.139Z,9.45
2022-11-22T16:49:01.011Z,10.63
2022-11-22T16:51:31.543Z,10.90
2022-11-22T16:54:01.853Z,10.15
2022-11-22T16:56:33.437Z,10.90
2022-11-22T16:59:07.962Z,11.23
2022-11-22T17:01:41.679Z,11.32
2022-11-22T17:04:21.324Z,11.65
2022-11-22T17:06:49.811Z,10.65
2022-11-22T17:09:18.146Z,12.30
2022-11-22T17:11:46.971Z,12.45
2022-11-22T17:14:19.433Z,12.63
2022-11-22T17:16:48.251Z,11.63
2022-11-22T17:19:51.564Z,11.52
2022-11-22T17:22:07.476Z,11.77
2022-11-22T17:24:36.448Z,12.02
2022-11-22T17:27:04.978Z,13.70
2022-11-22T17:29:49.276Z,10.98
2022-11-22T17:32:18.500Z,14.23
2022-11-22T17:34:47.159Z,11.77
2022-11-22T17:37:16.049Z,12.13
2022-11-22T17:39:44.550Z,12.88
2022-11-22T17:42:13.552Z,12.02
2022-11-22T17:44:43.299Z,12.52
2022-11-22T17:47:12.065Z,12.32
2022-11-22T17:49:40.706Z,10.82
2022-11-22T17:52:09.473Z,13.20
2022-11-22T17:54:39.001Z,13.93
2022-11-22T17:57:07.724Z,14.98
2022-11-22T17:59:36.172Z,15.73
2022-11-22T18:02:06.421Z,16.67
2022-11-22T18:04:34.927Z,16.80
2022-11-22T18:07:03.869Z,17.30
2022-11-22T18:09:34.855Z,17.85
2022-11-22T18:12:03.581Z,18.23
2022-11-22T18:14:32.300Z,19.60
2022-11-22T18:17:01.022Z,25.15
2022-11-22T18:19:31.179Z,25.48
2022-11-22T18:22:00.144Z,19.55
2022-11-22T18:24:29.040Z,19.65
2022-11-22T18:26:57.266Z,22.50
2022-11-22T18:32:14.367Z,22.95
2022-11-22T18:34:44.781Z,32.33
2022-11-22T18:37:13.061Z,26.50
2022-11-22T18:39:42.609Z,28.42
2022-11-22T18:42:14.723Z,24.95
2022-11-22T18:44:43.287Z,26.63
2022-11-22T18:47:12.280Z,28.70
2022-11-22T18:49:40.751Z,21.05
2022-11-22T18:52:14.861Z,20.38
2022-11-22T18:54:45.708Z,20.77
2022-11-22T18:57:14.246Z,29.58
2022-11-22T18:59:42.666Z,37.20
2022-11-22T19:02:11.094Z,31.25
2022-11-22T19:04:39.617Z,28.08
2022-11-22T19:07:09.916Z,25.13
2022-11-22T19:09:38.536Z,27.08
2022-11-22T19:12:07.393Z,33.88
2022-11-22T19:14:35.685Z,26.20
2022-11-22T19:17:04.034Z,29.15
2022-11-22T19:19:33.048Z,29.77
2022-11-22T19:22:02.662Z,25.92
2022-11-22T19:24:32.996Z,26.73
2022-11-22T19:27:01.919Z,27.52
2022-11-22T19:29:31.054Z,23.98
2022-11-22T19:31:59.910Z,23.15
2022-11-22T19:34:30.967Z,21.50
2022-11-22T19:37:02.618Z,22.73
2022-11-22T19:39:33.416Z,21.65
2022-11-22T19:42:02.004Z,21.70
2022-11-22T19:44:31.691Z,24.95
2022-11-22T19:47:00.042Z,24.35
2022-11-22T19:49:29.006Z,24.80
2022-11-22T19:51:57.722Z,29.58
2022-11-22T19:54:26.276Z,29.60
2022-11-22T19:56:56.549Z,45.55
2022-11-22T19:59:25.132Z,59.72
2022-11-22T20:01:53.674Z,51.35
2022-11-22T20:04:22.271Z,47.45
2022-11-22T20:06:50.948Z,46.50
2022-11-22T20:09:19.378Z,47.70
2022-11-22T20:11:48.195Z,40.42
2022-11-22T20:14:17.991Z,29.40
2022-11-22T20:16:46.440Z,33.45
2022-11-22T20:19:16.062Z,32.35
2022-11-22T20:21:45.169Z,30.38
2022-11-22T20:24:14.622Z,26.55
2022-11-22T20:26:43.239Z,24.00
2022-11-22T20:29:16.246Z,22.98
2022-11-22T20:31:46.202Z,23.88
2022-11-22T20:34:16.000Z,23.75
2022-11-22T20:36:44.413Z,25.08
2022-11-22T20:39:13.223Z,25.40
2022-11-22T20:41:41.840Z,25.15
2022-11-22T20:44:14.400Z,24.75
2022-11-22T20:46:43.520Z,25.48
2022-11-22T20:49:13.800Z,25.48
2022-11-22T20:51:43.364Z,25.80
2022-11-22T20:54:12.559Z,27.23
2022-11-22T20:56:41.245Z,25.55
2022-11-22T20:59:09.813Z,26.25
2022-11-22T21:01:39.444Z,25.13
2022-11-22T21:04:08.328Z,22.80
2022-11-22T21:06:38.374Z,24.63
2022-11-22T21:09:06.966Z,23.65
2022-11-22T21:11:35.735Z,23.75
2022-11-22T21:14:04.199Z,24.60
2022-11-22T21:16:33.170Z,23.58
2022-11-22T21:19:05.324Z,26.67
2022-11-22T21:21:36.039Z,24.70
2022-11-22T21:24:08.065Z,25.55
2022-11-22T21:26:36.932Z,27.05
2022-11-22T21:29:15.869Z,27.42
2022-11-22T21:31:45.067Z,28.20
2022-11-22T21:34:18.112Z,29.70
2022-11-22T21:36:46.622Z,28.80
2022-11-22T21:39:17.911Z,29.77
2022-11-22T21:41:46.533Z,33.10
2022-11-22T21:44:15.040Z,49.28
2022-11-22T21:46:44.008Z,46.33
2022-11-22T21:49:16.226Z,49.00
2022-11-22T21:51:49.931Z,53.13
2022-11-22T21:54:22.904Z,59.50
2022-11-22T21:56:52.247Z,55.85
2022-11-22T21:59:20.751Z,55.33
2022-11-22T22:01:49.355Z,49.88
2022-11-22T22:04:18.165Z,51.30
2022-11-22T22:06:46.816Z,48.75
2022-11-22T22:09:15.382Z,38.22
2022-11-22T22:11:49.573Z,30.83
2022-11-22T22:14:17.902Z,32.33
2022-11-22T22:16:46.316Z,32.78
2022-11-22T22:19:15.551Z,41.88
2022-11-22T22:21:44.071Z,40.80
2022-11-22T22:24:12.829Z,37.50
2022-11-22T22:26:42.673Z,41.03
2022-11-22T22:29:12.877Z,35.65
2022-11-22T22:31:41.429Z,31.58
2022-11-22T22:34:09.988Z,24.05
2022-11-22T22:36:38.365Z,23.40
2022-11-22T22:39:06.904Z,22.75
2022-11-22T22:41:35.388Z,19.33
2022-11-22T22:44:03.940Z,21.80
2022-11-22T22:46:33.770Z,23.27
2022-11-22T22:49:02.201Z,21.70
2022-11-22T22:51:33.584Z,21.20
2022-11-22T22:54:03.294Z,18.90
2022-11-22T22:56:33.162Z,22.17
2022-11-22T22:59:01.874Z,19.40
2022-11-22T23:01:32.148Z,19.65
2022-11-22T23:04:03.579Z,18.70
2022-11-22T23:06:34.553Z,20.85
2022-11-22T23:09:03.781Z,19.92
2022-11-22T23:11:51.328Z,20.95
2022-11-22T23:14:21.599Z,20.55
2022-11-22T23:16:54.578Z,18.05
2022-11-22T23:19:28.885Z,18.17
2022-11-22T23:21:58.182Z,17.08
2022-11-22T23:24:26.622Z,17.88
2022-11-22T23:26:55.089Z,16.88
2022-11-22T23:29:23.658Z,15.35
2022-11-22T23:31:52.948Z,16.85
2022-11-22T23:34:21.349Z,18.42
2022-11-22T23:36:51.709Z,18.33
2022-11-22T23:39:20.370Z,17.35
2022-11-22T23:41:48.941Z,11.55
2022-11-22T23:44:17.529Z,10.02
2022-11-22T23:46:46.019Z,9.55
2022-11-22T23:49:14.511Z,6.95
2022-11-22T23:51:43.139Z,7.65
2022-11-22T23:54:13.263Z,7.10
2022-11-22T23:56:42.012Z,6.93
2022-11-22T23:59:11.774Z,6.75
